sensor_id;sensor_type;location;lat;lon;timestamp;P1;durP1;ratioP1;P2;durP2;ratioP2
16387;SDS011;8303;53.446;9.988;2023-03-31T04:45:41;23.27;;;11.83;;
16387;SDS011;8303;53.446;9.988;2023-03-31T04:48:09;24.97;;;12.23;;
16387;SDS011;8303;53.446;9.988;2023-03-31T04:50:36;29.50;;;12.20;;
16387;SDS011;8303;53.446;9.988;2023-03-31T04:53:04;24.37;;;11.87;;
16387;SDS011;8303;53.446;9.988;2023-03-31T04:55:32;19.13;;;11.33;;
16387;SDS011;8303;53.446;9.988;2023-03-31T04:58:00;24.73;;;12.23;;
16387;SDS011;8303;53.446;9.988;2023-03-31T05:00:28;21.60;;;10.50;;
16387;SDS011;8303;53.446;9.988;2023-03-31T05:02:56;22.30;;;11.27;;
16387;SDS011;8303;53.446;9.988;2023-03-31T05:05:26;19.27;;;10.47;;
16387;SDS011;8303;53.446;9.988;2023-03-31T05:07:53;22.20;;;9.13;;
16387;SDS011;8303;53.446;9.988;2023-03-31T05:10:20;20.20;;;10.93;;
16387;SDS011;8303;53.446;9.988;2023-03-31T05:12:47;22.57;;;11.40;;
16387;SDS011;8303;53.446;9.988;2023-03-31T05:15:15;21.47;;;9.70;;
16387;SDS011;8303;53.446;9.988;2023-03-31T05:17:43;24.10;;;10.20;;
16387;SDS011;8303;53.446;9.988;2023-03-31T05:20:12;21.10;;;9.83;;
16387;SDS011;8303;53.446;9.988;2023-03-31T05:22:39;19.67;;;10.30;;
16387;SDS011;8303;53.446;9.988;2023-03-31T05:25:07;20.50;;;9.00;;
16387;SDS011;8303;53.446;9.988;2023-03-31T05:27:35;16.00;;;8.80;;
16387;SDS011;8303;53.446;9.988;2023-03-31T05:30:03;20.03;;;9.87;;
16387;SDS011;8303;53.446;9.988;2023-03-31T05:32:32;17.67;;;8.70;;
16387;SDS011;8303;53.446;9.988;2023-03-31T05:34:59;17.83;;;9.53;;
16387;SDS011;8303;53.446;9.988;2023-03-31T05:37:28;25.67;;;9.33;;
16387;SDS011;8303;53.446;9.988;2023-03-31T05:39:58;14.40;;;8.90;;
16387;SDS011;8303;53.446;9.988;2023-03-31T05:42:30;22.80;;;10.47;;
16387;SDS011;8303;53.446;9.988;2023-03-31T05:44:57;16.43;;;9.40;;
16387;SDS011;8303;53.446;9.988;2023-03-31T05:47:24;23.07;;;9.53;;
16387;SDS011;8303;53.446;9.988;2023-03-31T05:49:52;14.27;;;9.17;;
16387;SDS011;8303;53.446;9.988;2023-03-31T05:52:19;22.40;;;9.43;;
16387;SDS011;8303;53.446;9.988;2023-03-31T05:54:48;18.17;;;9.10;;
16387;SDS011;8303;53.446;9.988;2023-03-31T05:57:15;16.23;;;8.20;;
16387;SDS011;8303;53.446;9.988;2023-03-31T05:59:42;19.00;;;8.70;;
16387;SDS011;8303;53.446;9.988;2023-03-31T06:02:12;18.03;;;8.73;;
16387;SDS011;8303;53.446;9.988;2023-03-31T06:04:40;23.23;;;8.83;;
16387;SDS011;8303;53.446;9.988;2023-03-31T06:07:08;24.03;;;8.33;;
16387;SDS011;8303;53.446;9.988;2023-03-31T06:09:35;17.13;;;8.57;;
16387;SDS011;8303;53.446;9.988;2023-03-31T06:12:04;17.03;;;10.47;;
16387;SDS011;8303;53.446;9.988;2023-03-31T06:14:34;16.03;;;9.20;;
16387;SDS011;8303;53.446;9.988;2023-03-31T06:17:07;21.27;;;8.57;;
16387;SDS011;8303;53.446;9.988;2023-03-31T06:19:34;17.03;;;9.00;;
16387;SDS011;8303;53.446;9.988;2023-03-31T06:22:02;19.27;;;9.13;;
16387;SDS011;8303;53.446;9.988;2023-03-31T06:24:29;14.93;;;8.13;;
16387;SDS011;8303;53.446;9.988;2023-03-31T06:26:57;15.90;;;8.93;;
16387;SDS011;8303;53.446;9.988;2023-03-31T06:29:26;16.00;;;8.57;;
16387;SDS011;8303;53.446;9.988;2023-03-31T06:31:53;17.67;;;9.03;;
16387;SDS011;8303;53.446;9.988;2023-03-31T06:34:21;14.53;;;8.23;;
16387;SDS011;8303;53.446;9.988;2023-03-31T06:36:48;20.00;;;8.73;;
16387;SDS011;8303;53.446;9.988;2023-03-31T06:39:15;15.37;;;8.63;;
16387;SDS011;8303;53.446;9.988;2023-03-31T06:41:42;13.43;;;8.57;;
16387;SDS011;8303;53.446;9.988;2023-03-31T06:44:09;16.37;;;8.10;;
16387;SDS011;8303;53.446;9.988;2023-03-31T06:46:38;18.67;;;8.57;;
16387;SDS011;8303;53.446;9.988;2023-03-31T06:49:06;16.17;;;8.10;;
16387;SDS011;8303;53.446;9.988;2023-03-31T06:51:34;16.27;;;7.97;;
16387;SDS011;8303;53.446;9.988;2023-03-31T06:54:01;16.20;;;8.33;;
16387;SDS011;8303;53.446;9.988;2023-03-31T06:56:28;14.03;;;8.30;;
16387;SDS011;8303;53.446;9.988;2023-03-31T06:58:56;13.93;;;7.10;;
16387;SDS011;8303;53.446;9.988;2023-03-31T07:01:23;22.80;;;9.33;;
16387;SDS011;8303;53.446;9.988;2023-03-31T07:03:52;15.90;;;8.40;;
16387;SDS011;8303;53.446;9.988;2023-03-31T07:06:19;10.67;;;7.33;;
16387;SDS011;8303;53.446;9.988;2023-03-31T07:08:46;13.73;;;8.10;;
16387;SDS011;8303;53.446;9.988;2023-03-31T07:11:13;15.13;;;7.67;;
16387;SDS011;8303;53.446;9.988;2023-03-31T07:13:40;15.13;;;8.50;;
16387;SDS011;8303;53.446;9.988;2023-03-31T07:16:08;15.37;;;8.27;;
16387;SDS011;8303;53.446;9.988;2023-03-31T07:18:38;13.50;;;7.40;;
16387;SDS011;8303;53.446;9.988;2023-03-31T07:21:07;13.87;;;7.10;;
16387;SDS011;8303;53.446;9.988;2023-03-31T07:23:35;16.67;;;7.13;;
16387;SDS011;8303;53.446;9.988;2023-03-31T07:26:02;12.50;;;7.43;;
16387;SDS011;8303;53.446;9.988;2023-03-31T07:28:30;12.10;;;7.17;;
16387;SDS011;8303;53.446;9.988;2023-03-31T07:30:58;13.03;;;7.37;;
16387;SDS011;8303;53.446;9.988;2023-03-31T07:33:25;9.50;;;6.77;;
16387;SDS011;8303;53.446;9.988;2023-03-31T07:35:52;9.90;;;6.57;;
16387;SDS011;8303;53.446;9.988;2023-03-31T07:38:21;13.10;;;7.00;;
16387;SDS011;8303;53.446;9.988;2023-03-31T07:40:48;14.90;;;6.90;;
16387;SDS011;8303;53.446;9.988;2023-03-31T07:43:15;11.00;;;7.50;;
16387;SDS011;8303;53.446;9.988;2023-03-31T07:45:43;13.60;;;7.37;;
16387;SDS011;8303;53.446;9.988;2023-03-31T07:48:11;7.53;;;6.40;;
16387;SDS011;8303;53.446;9.988;2023-03-31T07:50:38;14.33;;;6.90;;
16387;SDS011;8303;53.446;9.988;2023-03-31T07:53:05;9.60;;;6.33;;
16387;SDS011;8303;53.446;9.988;2023-03-31T07:55:34;13.47;;;7.37;;
16387;SDS011;8303;53.446;9.988;2023-03-31T07:58:01;10.97;;;7.30;;
16387;SDS011;8303;53.446;9.988;2023-03-31T08:00:28;13.87;;;6.77;;
16387;SDS011;8303;53.446;9.988;2023-03-31T08:02:55;9.80;;;6.43;;
16387;SDS011;8303;53.446;9.988;2023-03-31T08:05:23;12.63;;;7.03;;
16387;SDS011;8303;53.446;9.988;2023-03-31T08:07:50;12.03;;;6.77;;
16387;SDS011;8303;53.446;9.988;2023-03-31T08:10:18;8.97;;;6.47;;
16387;SDS011;8303;53.446;9.988;2023-03-31T08:12:49;14.30;;;6.13;;
16387;SDS011;8303;53.446;9.988;2023-03-31T08:15:17;12.40;;;6.80;;
16387;SDS011;8303;53.446;9.988;2023-03-31T08:17:44;11.93;;;6.30;;
16387;SDS011;8303;53.446;9.988;2023-03-31T08:20:11;12.07;;;6.27;;
16387;SDS011;8303;53.446;9.988;2023-03-31T08:22:39;10.93;;;6.93;;
16387;SDS011;8303;53.446;9.988;2023-03-31T08:25:07;9.93;;;5.97;;
16387;SDS011;8303;53.446;9.988;2023-03-31T08:27:35;7.90;;;5.47;;
16387;SDS011;8303;53.446;9.988;2023-03-31T08:30:06;8.63;;;5.43;;
16387;SDS011;8303;53.446;9.988;2023-03-31T08:32:35;13.47;;;6.23;;
16387;SDS011;8303;53.446;9.988;2023-03-31T08:35:03;10.30;;;5.57;;
16387;SDS011;8303;53.446;9.988;2023-03-31T08:37:31;7.23;;;5.13;;
16387;SDS011;8303;53.446;9.988;2023-03-31T08:39:58;9.20;;;5.20;;
16387;SDS011;8303;53.446;9.988;2023-03-31T08:42:31;6.80;;;5.50;;
16387;SDS011;8303;53.446;9.988;2023-03-31T08:45:03;11.77;;;5.83;;
16387;SDS011;8303;53.446;9.988;2023-03-31T08:47:37;9.07;;;5.27;;
16387;SDS011;8303;53.446;9.988;2023-03-31T08:50:07;6.80;;;5.37;;
16387;SDS011;8303;53.446;9.988;2023-03-31T08:52:38;11.23;;;6.00;;
16387;SDS011;8303;53.446;9.988;2023-03-31T08:55:12;6.77;;;4.77;;
16387;SDS011;8303;53.446;9.988;2023-03-31T08:57:47;12.70;;;6.20;;
16387;SDS011;8303;53.446;9.988;2023-03-31T09:00:22;8.33;;;5.53;;
16387;SDS011;8303;53.446;9.988;2023-03-31T09:02:52;7.30;;;5.40;;
16387;SDS011;8303;53.446;9.988;2023-03-31T09:05:26;8.27;;;5.20;;
16387;SDS011;8303;53.446;9.988;2023-03-31T09:08:10;12.63;;;5.47;;
16387;SDS011;8303;53.446;9.988;2023-03-31T09:10:47;7.07;;;5.73;;
16387;SDS011;8303;53.446;9.988;2023-03-31T09:16:18;14.33;;;5.47;;
16387;SDS011;8303;53.446;9.988;2023-03-31T09:18:51;12.07;;;5.40;;
16387;SDS011;8303;53.446;9.988;2023-03-31T09:21:20;7.77;;;4.87;;
16387;SDS011;8303;53.446;9.988;2023-03-31T09:23:54;5.73;;;4.97;;
16387;SDS011;8303;53.446;9.988;2023-03-31T09:26:28;9.70;;;4.80;;
16387;SDS011;8303;53.446;9.988;2023-03-31T09:29:01;10.60;;;5.53;;
16387;SDS011;8303;53.446;9.988;2023-03-31T09:31:38;9.17;;;5.50;;
16387;SDS011;8303;53.446;9.988;2023-03-31T09:34:12;7.57;;;5.17;;
16387;SDS011;8303;53.446;9.988;2023-03-31T09:36:41;8.97;;;5.27;;
16387;SDS011;8303;53.446;9.988;2023-03-31T09:39:10;8.53;;;4.47;;
16387;SDS011;8303;53.446;9.988;2023-03-31T09:41:40;6.93;;;5.47;;
16387;SDS011;8303;53.446;9.988;2023-03-31T09:44:20;9.00;;;5.20;;
16387;SDS011;8303;53.446;9.988;2023-03-31T09:46:52;8.00;;;6.00;;
16387;SDS011;8303;53.446;9.988;2023-03-31T09:49:21;8.07;;;5.30;;
16387;SDS011;8303;53.446;9.988;2023-03-31T09:51:53;8.63;;;5.57;;
16387;SDS011;8303;53.446;9.988;2023-03-31T09:54:33;7.57;;;5.40;;
16387;SDS011;8303;53.446;9.988;2023-03-31T09:57:11;8.83;;;5.53;;
16387;SDS011;8303;53.446;9.988;2023-03-31T09:59:39;6.07;;;5.47;;
16387;SDS011;8303;53.446;9.988;2023-03-31T10:02:26;5.70;;;5.17;;
16387;SDS011;8303;53.446;9.988;2023-03-31T10:04:59;6.10;;;5.23;;
16387;SDS011;8303;53.446;9.988;2023-03-31T10:07:27;5.37;;;4.67;;
16387;SDS011;8303;53.446;9.988;2023-03-31T10:09:55;7.53;;;5.80;;
16387;SDS011;8303;53.446;9.988;2023-03-31T10:12:24;6.73;;;5.13;;
16387;SDS011;8303;53.446;9.988;2023-03-31T10:15:02;5.90;;;4.93;;
16387;SDS011;8303;53.446;9.988;2023-03-31T10:17:44;6.43;;;5.03;;
16387;SDS011;8303;53.446;9.988;2023-03-31T10:20:20;5.30;;;4.87;;
16387;SDS011;8303;53.446;9.988;2023-03-31T10:23:01;6.43;;;5.13;;
16387;SDS011;8303;53.446;9.988;2023-03-31T10:25:31;6.53;;;5.53;;
16387;SDS011;8303;53.446;9.988;2023-03-31T10:28:00;6.37;;;4.80;;
16387;SDS011;8303;53.446;9.988;2023-03-31T10:30:31;6.33;;;5.27;;
16387;SDS011;8303;53.446;9.988;2023-03-31T10:33:05;6.20;;;4.67;;
16387;SDS011;8303;53.446;9.988;2023-03-31T10:35:39;5.23;;;4.73;;
16387;SDS011;8303;53.446;9.988;2023-03-31T10:38:09;6.50;;;5.50;;
16387;SDS011;8303;53.446;9.988;2023-03-31T10:40:38;7.97;;;5.30;;
16387;SDS011;8303;53.446;9.988;2023-03-31T10:43:14;4.77;;;4.33;;
16387;SDS011;8303;53.446;9.988;2023-03-31T10:45:43;5.63;;;5.00;;
16387;SDS011;8303;53.446;9.988;2023-03-31T10:48:17;7.67;;;5.47;;
16387;SDS011;8303;53.446;9.988;2023-03-31T10:50:48;7.33;;;4.90;;
16387;SDS011;8303;53.446;9.988;2023-03-31T10:53:19;9.17;;;6.17;;
16387;SDS011;8303;53.446;9.988;2023-03-31T10:55:55;5.53;;;4.63;;
16387;SDS011;8303;53.446;9.988;2023-03-31T11:01:38;4.93;;;4.53;;
16387;SDS011;8303;53.446;9.988;2023-03-31T11:04:23;5.30;;;4.80;;
16387;SDS011;8303;53.446;9.988;2023-03-31T11:07:12;7.07;;;5.33;;
16387;SDS011;8303;53.446;9.988;2023-03-31T11:09:48;6.27;;;5.43;;
16387;SDS011;8303;53.446;9.988;2023-03-31T11:12:26;7.40;;;6.80;;
16387;SDS011;8303;53.446;9.988;2023-03-31T11:15:02;5.90;;;4.50;;
16387;SDS011;8303;53.446;9.988;2023-03-31T11:17:41;6.23;;;5.63;;
16387;SDS011;8303;53.446;9.988;2023-03-31T11:20:26;7.30;;;4.50;;
16387;SDS011;8303;53.446;9.988;2023-03-31T11:23:01;6.23;;;4.47;;
16387;SDS011;8303;53.446;9.988;2023-03-31T11:25:37;6.30;;;4.30;;
16387;SDS011;8303;53.446;9.988;2023-03-31T11:31:16;6.67;;;4.43;;
16387;SDS011;8303;53.446;9.988;2023-03-31T11:34:00;6.23;;;5.53;;
16387;SDS011;8303;53.446;9.988;2023-03-31T11:36:46;5.77;;;5.20;;
16387;SDS011;8303;53.446;9.988;2023-03-31T11:39:39;6.33;;;5.73;;
16387;SDS011;8303;53.446;9.988;2023-03-31T11:42:38;6.90;;;5.37;;
16387;SDS011;8303;53.446;9.988;2023-03-31T11:45:13;10.53;;;5.30;;
16387;SDS011;8303;53.446;9.988;2023-03-31T11:47:43;6.57;;;5.67;;
16387;SDS011;8303;53.446;9.988;2023-03-31T11:50:12;6.27;;;5.00;;
16387;SDS011;8303;53.446;9.988;2023-03-31T11:52:47;8.73;;;4.87;;
16387;SDS011;8303;53.446;9.988;2023-03-31T11:55:18;8.60;;;5.37;;
16387;SDS011;8303;53.446;9.988;2023-03-31T11:57:49;8.57;;;5.20;;
16387;SDS011;8303;53.446;9.988;2023-03-31T12:00:23;8.23;;;5.57;;
16387;SDS011;8303;53.446;9.988;2023-03-31T12:02:53;6.10;;;5.43;;
16387;SDS011;8303;53.446;9.988;2023-03-31T12:05:25;7.40;;;5.50;;
16387;SDS011;8303;53.446;9.988;2023-03-31T12:07:56;6.90;;;6.20;;
16387;SDS011;8303;53.446;9.988;2023-03-31T12:10:30;7.37;;;5.40;;
16387;SDS011;8303;53.446;9.988;2023-03-31T12:13:01;6.27;;;5.73;;
16387;SDS011;8303;53.446;9.988;2023-03-31T12:15:37;8.27;;;5.70;;
16387;SDS011;8303;53.446;9.988;2023-03-31T12:18:08;7.90;;;5.67;;
16387;SDS011;8303;53.446;9.988;2023-03-31T12:20:40;7.23;;;5.90;;
16387;SDS011;8303;53.446;9.988;2023-03-31T12:23:13;11.23;;;8.17;;
16387;SDS011;8303;53.446;9.988;2023-03-31T12:25:46;7.77;;;5.97;;
16387;SDS011;8303;53.446;9.988;2023-03-31T12:28:17;7.77;;;5.57;;
16387;SDS011;8303;53.446;9.988;2023-03-31T12:30:45;7.10;;;5.07;;
16387;SDS011;8303;53.446;9.988;2023-03-31T12:33:14;6.40;;;5.80;;
16387;SDS011;8303;53.446;9.988;2023-03-31T12:35:49;10.30;;;5.60;;
16387;SDS011;8303;53.446;9.988;2023-03-31T12:38:28;7.67;;;5.53;;
16387;SDS011;8303;53.446;9.988;2023-03-31T12:41:17;6.37;;;5.37;;
16387;SDS011;8303;53.446;9.988;2023-03-31T12:43:54;9.73;;;5.93;;
16387;SDS011;8303;53.446;9.988;2023-03-31T12:46:47;6.10;;;5.40;;
16387;SDS011;8303;53.446;9.988;2023-03-31T12:49:33;9.83;;;6.73;;
16387;SDS011;8303;53.446;9.988;2023-03-31T12:52:15;14.07;;;6.83;;
16387;SDS011;8303;53.446;9.988;2023-03-31T12:54:58;12.07;;;5.97;;
16387;SDS011;8303;53.446;9.988;2023-03-31T13:01:02;8.83;;;5.90;;
16387;SDS011;8303;53.446;9.988;2023-03-31T13:03:42;8.27;;;5.40;;
16387;SDS011;8303;53.446;9.988;2023-03-31T13:06:11;6.20;;;4.90;;
16387;SDS011;8303;53.446;9.988;2023-03-31T13:09:37;7.93;;;6.97;;
16387;SDS011;8303;53.446;9.988;2023-03-31T13:12:16;6.77;;;5.93;;
16387;SDS011;8303;53.446;9.988;2023-03-31T13:14:46;7.57;;;5.93;;
16387;SDS011;8303;53.446;9.988;2023-03-31T13:17:22;6.57;;;5.20;;
16387;SDS011;8303;53.446;9.988;2023-03-31T13:19:51;6.43;;;5.70;;
16387;SDS011;8303;53.446;9.988;2023-03-31T13:22:27;5.50;;;5.07;;
16387;SDS011;8303;53.446;9.988;2023-03-31T13:28:10;7.27;;;5.20;;
16387;SDS011;8303;53.446;9.988;2023-03-31T13:30:44;5.57;;;5.10;;
16387;SDS011;8303;53.446;9.988;2023-03-31T13:33:13;6.73;;;5.63;;
16387;SDS011;8303;53.446;9.988;2023-03-31T13:35:43;5.77;;;5.23;;
16387;SDS011;8303;53.446;9.988;2023-03-31T13:38:14;7.07;;;5.90;;
16387;SDS011;8303;53.446;9.988;2023-03-31T13:40:53;8.07;;;6.20;;
16387;SDS011;8303;53.446;9.988;2023-03-31T13:46:25;6.70;;;6.20;;
16387;SDS011;8303;53.446;9.988;2023-03-31T13:49:08;7.77;;;7.10;;
16387;SDS011;8303;53.446;9.988;2023-03-31T13:51:51;6.73;;;6.17;;
16387;SDS011;8303;53.446;9.988;2023-03-31T13:54:35;7.13;;;6.47;;
16387;SDS011;8303;53.446;9.988;2023-03-31T14:00:25;5.93;;;5.53;;
16387;SDS011;8303;53.446;9.988;2023-03-31T14:05:44;6.80;;;6.17;;
16387;SDS011;8303;53.446;9.988;2023-03-31T14:08:17;6.97;;;6.43;;
16387;SDS011;8303;53.446;9.988;2023-03-31T14:10:49;5.77;;;5.40;;
16387;SDS011;8303;53.446;9.988;2023-03-31T14:13:16;6.77;;;6.27;;
16387;SDS011;8303;53.446;9.988;2023-03-31T14:15:45;6.80;;;6.30;;
16387;SDS011;8303;53.446;9.988;2023-03-31T14:18:14;6.07;;;5.53;;
16387;SDS011;8303;53.446;9.988;2023-03-31T14:20:48;6.53;;;6.03;;
16387;SDS011;8303;53.446;9.988;2023-03-31T14:23:34;6.60;;;6.10;;
16387;SDS011;8303;53.446;9.988;2023-03-31T14:26:10;7.73;;;7.00;;
16387;SDS011;8303;53.446;9.988;2023-03-31T14:28:52;8.23;;;7.73;;
16387;SDS011;8303;53.446;9.988;2023-03-31T14:31:29;8.50;;;7.77;;
16387;SDS011;8303;53.446;9.988;2023-03-31T14:34:20;8.90;;;8.10;;
16387;SDS011;8303;53.446;9.988;2023-03-31T14:37:09;9.73;;;9.23;;
16387;SDS011;8303;53.446;9.988;2023-03-31T14:39:42;9.67;;;8.97;;
16387;SDS011;8303;53.446;9.988;2023-03-31T14:42:11;8.93;;;8.23;;
16387;SDS011;8303;53.446;9.988;2023-03-31T14:44:40;7.87;;;7.27;;
16387;SDS011;8303;53.446;9.988;2023-03-31T14:47:14;7.37;;;6.80;;
16387;SDS011;8303;53.446;9.988;2023-03-31T14:49:45;8.97;;;8.33;;
16387;SDS011;8303;53.446;9.988;2023-03-31T14:52:13;7.27;;;6.77;;
16387;SDS011;8303;53.446;9.988;2023-03-31T14:54:43;7.93;;;7.23;;
16387;SDS011;8303;53.446;9.988;2023-03-31T14:57:11;7.90;;;7.30;;
16387;SDS011;8303;53.446;9.988;2023-03-31T14:59:42;8.30;;;7.80;;
16387;SDS011;8303;53.446;9.988;2023-03-31T15:02:12;7.50;;;7.00;;
16387;SDS011;8303;53.446;9.988;2023-03-31T15:04:46;8.83;;;8.00;;
16387;SDS011;8303;53.446;9.988;2023-03-31T15:07:15;7.97;;;7.27;;
16387;SDS011;8303;53.446;9.988;2023-03-31T15:09:43;9.00;;;8.20;;
16387;SDS011;8303;53.446;9.988;2023-03-31T15:12:14;8.80;;;8.20;;
16387;SDS011;8303;53.446;9.988;2023-03-31T15:14:44;8.17;;;7.57;;
16387;SDS011;8303;53.446;9.988;2023-03-31T15:17:19;9.83;;;9.13;;
16387;SDS011;8303;53.446;9.988;2023-03-31T15:19:51;8.93;;;8.13;;
16387;SDS011;8303;53.446;9.988;2023-03-31T15:22:20;9.00;;;8.40;;
16387;SDS011;8303;53.446;9.988;2023-03-31T15:24:48;9.70;;;9.10;;
16387;SDS011;8303;53.446;9.988;2023-03-31T15:27:16;12.17;;;11.13;;
16387;SDS011;8303;53.446;9.988;2023-03-31T15:29:48;11.20;;;10.33;;
16387;SDS011;8303;53.446;9.988;2023-03-31T15:32:23;11.67;;;10.57;;
16387;SDS011;8303;53.446;9.988;2023-03-31T15:34:52;9.17;;;8.57;;
16387;SDS011;8303;53.446;9.988;2023-03-31T15:37:21;9.27;;;8.40;;
16387;SDS011;8303;53.446;9.988;2023-03-31T15:39:53;10.50;;;9.77;;
16387;SDS011;8303;53.446;9.988;2023-03-31T15:42:21;10.83;;;10.13;;
16387;SDS011;8303;53.446;9.988;2023-03-31T15:44:52;9.47;;;8.97;;
16387;SDS011;8303;53.446;9.988;2023-03-31T15:47:22;10.37;;;9.67;;
16387;SDS011;8303;53.446;9.988;2023-03-31T15:49:53;9.33;;;8.70;;
16387;SDS011;8303;53.446;9.988;2023-03-31T15:52:29;9.13;;;8.47;;
16387;SDS011;8303;53.446;9.988;2023-03-31T15:54:59;8.60;;;8.00;;
16387;SDS011;8303;53.446;9.988;2023-03-31T15:57:33;8.17;;;7.67;;
16387;SDS011;8303;53.446;9.988;2023-03-31T16:00:01;8.13;;;7.53;;
16387;SDS011;8303;53.446;9.988;2023-03-31T16:02:37;8.97;;;8.20;;
16387;SDS011;8303;53.446;9.988;2023-03-31T16:05:15;7.93;;;7.43;;
16387;SDS011;8303;53.446;9.988;2023-03-31T16:07:49;9.70;;;9.00;;
16387;SDS011;8303;53.446;9.988;2023-03-31T16:10:16;11.53;;;10.83;;
16387;SDS011;8303;53.446;9.988;2023-03-31T16:12:48;9.30;;;8.70;;
16387;SDS011;8303;53.446;9.988;2023-03-31T16:15:18;10.93;;;10.33;;
16387;SDS011;8303;53.446;9.988;2023-03-31T16:17:50;9.63;;;8.93;;
16387;SDS011;8303;53.446;9.988;2023-03-31T16:20:19;10.53;;;9.73;;
16387;SDS011;8303;53.446;9.988;2023-03-31T16:22:50;11.10;;;10.40;;
16387;SDS011;8303;53.446;9.988;2023-03-31T16:25:20;11.13;;;10.43;;
16387;SDS011;8303;53.446;9.988;2023-03-31T16:27:49;11.60;;;10.90;;
16387;SDS011;8303;53.446;9.988;2023-03-31T16:30:21;11.43;;;10.53;;
16387;SDS011;8303;53.446;9.988;2023-03-31T16:33:01;10.27;;;9.67;;
16387;SDS011;8303;53.446;9.988;2023-03-31T16:35:30;13.83;;;13.03;;
16387;SDS011;8303;53.446;9.988;2023-03-31T16:37:58;14.37;;;13.57;;
16387;SDS011;8303;53.446;9.988;2023-03-31T16:40:26;12.53;;;11.53;;
16387;SDS011;8303;53.446;9.988;2023-03-31T16:43:11;11.20;;;10.40;;
16387;SDS011;8303;53.446;9.988;2023-03-31T16:45:40;10.53;;;9.83;;
16387;SDS011;8303;53.446;9.988;2023-03-31T16:48:11;10.40;;;9.77;;
16387;SDS011;8303;53.446;9.988;2023-03-31T16:50:38;9.67;;;9.07;;
16387;SDS011;8303;53.446;9.988;2023-03-31T16:53:05;11.03;;;10.13;;
16387;SDS011;8303;53.446;9.988;2023-03-31T16:55:33;9.87;;;9.13;;
16387;SDS011;8303;53.446;9.988;2023-03-31T16:58:00;10.47;;;9.77;;
16387;SDS011;8303;53.446;9.988;2023-03-31T17:00:28;8.80;;;8.10;;
16387;SDS011;8303;53.446;9.988;2023-03-31T17:02:55;9.97;;;9.27;;
16387;SDS011;8303;53.446;9.988;2023-03-31T17:05:24;10.23;;;9.43;;
16387;SDS011;8303;53.446;9.988;2023-03-31T17:07:51;8.90;;;8.30;;
16387;SDS011;8303;53.446;9.988;2023-03-31T17:10:18;9.53;;;8.93;;
16387;SDS011;8303;53.446;9.988;2023-03-31T17:12:45;9.40;;;8.70;;
16387;SDS011;8303;53.446;9.988;2023-03-31T17:15:12;10.47;;;9.70;;
16387;SDS011;8303;53.446;9.988;2023-03-31T17:17:39;10.60;;;9.90;;
16387;SDS011;8303;53.446;9.988;2023-03-31T17:20:06;10.10;;;9.17;;
16387;SDS011;8303;53.446;9.988;2023-03-31T17:22:37;9.27;;;8.63;;
16387;SDS011;8303;53.446;9.988;2023-03-31T17:25:04;8.57;;;7.97;;
16387;SDS011;8303;53.446;9.988;2023-03-31T17:27:32;9.27;;;8.57;;
16387;SDS011;8303;53.446;9.988;2023-03-31T17:29:59;10.07;;;9.27;;
16387;SDS011;8303;53.446;9.988;2023-03-31T17:32:26;11.63;;;10.77;;
16387;SDS011;8303;53.446;9.988;2023-03-31T17:34:53;11.07;;;10.10;;
16387;SDS011;8303;53.446;9.988;2023-03-31T17:37:20;10.77;;;9.90;;
16387;SDS011;8303;53.446;9.988;2023-03-31T17:39:49;9.90;;;9.23;;
16387;SDS011;8303;53.446;9.988;2023-03-31T17:42:16;9.20;;;8.03;;
16387;SDS011;8303;53.446;9.988;2023-03-31T17:44:44;8.43;;;7.50;;
16387;SDS011;8303;53.446;9.988;2023-03-31T17:47:14;8.20;;;7.50;;
16387;SDS011;8303;53.446;9.988;2023-03-31T17:49:41;8.47;;;7.87;;
16387;SDS011;8303;53.446;9.988;2023-03-31T17:52:08;9.43;;;8.73;;
16387;SDS011;8303;53.446;9.988;2023-03-31T17:54:34;8.83;;;8.23;;
16387;SDS011;8303;53.446;9.988;2023-03-31T17:57:03;7.73;;;7.23;;
16387;SDS011;8303;53.446;9.988;2023-03-31T17:59:30;7.70;;;7.00;;
16387;SDS011;8303;53.446;9.988;2023-03-31T18:01:57;8.10;;;7.33;;
16387;SDS011;8303;53.446;9.988;2023-03-31T18:04:25;7.93;;;7.23;;
16387;SDS011;8303;53.446;9.988;2023-03-31T18:06:52;8.67;;;7.87;;
16387;SDS011;8303;53.446;9.988;2023-03-31T18:09:19;7.67;;;7.03;;
16387;SDS011;8303;53.446;9.988;2023-03-31T18:11:46;7.90;;;6.77;;
16387;SDS011;8303;53.446;9.988;2023-03-31T18:14:14;9.90;;;8.10;;
16387;SDS011;8303;53.446;9.988;2023-03-31T18:16:41;9.50;;;8.67;;
16387;SDS011;8303;53.446;9.988;2023-03-31T18:19:08;8.97;;;8.07;;
16387;SDS011;8303;53.446;9.988;2023-03-31T18:21:35;9.07;;;8.17;;
16387;SDS011;8303;53.446;9.988;2023-03-31T18:24:02;7.90;;;7.10;;
16387;SDS011;8303;53.446;9.988;2023-03-31T18:26:29;11.23;;;9.40;;
16387;SDS011;8303;53.446;9.988;2023-03-31T18:28:56;10.30;;;9.30;;
16387;SDS011;8303;53.446;9.988;2023-03-31T18:31:25;11.03;;;8.30;;
16387;SDS011;8303;53.446;9.988;2023-03-31T18:33:52;8.23;;;7.43;;
16387;SDS011;8303;53.446;9.988;2023-03-31T18:36:20;8.70;;;7.90;;
16387;SDS011;8303;53.446;9.988;2023-03-31T18:38:48;13.23;;;9.03;;
16387;SDS011;8303;53.446;9.988;2023-03-31T18:41:15;9.03;;;8.13;;
16387;SDS011;8303;53.446;9.988;2023-03-31T18:43:43;10.57;;;8.23;;
16387;SDS011;8303;53.446;9.988;2023-03-31T18:46:11;9.90;;;7.90;;
16387;SDS011;8303;53.446;9.988;2023-03-31T18:48:40;8.17;;;7.43;;
16387;SDS011;8303;53.446;9.988;2023-03-31T18:51:07;9.50;;;7.57;;
16387;SDS011;8303;53.446;9.988;2023-03-31T18:53:35;8.17;;;7.37;;
16387;SDS011;8303;53.446;9.988;2023-03-31T18:56:02;9.03;;;7.13;;
16387;SDS011;8303;53.446;9.988;2023-03-31T18:58:29;9.73;;;7.97;;
16387;SDS011;8303;53.446;9.988;2023-03-31T19:00:57;9.77;;;8.17;;
16387;SDS011;8303;53.446;9.988;2023-03-31T19:03:25;10.87;;;7.87;;
16387;SDS011;8303;53.446;9.988;2023-03-31T19:05:59;9.10;;;7.80;;
16387;SDS011;8303;53.446;9.988;2023-03-31T19:08:28;8.07;;;7.30;;
16387;SDS011;8303;53.446;9.988;2023-03-31T19:11:02;10.33;;;7.97;;
16387;SDS011;8303;53.446;9.988;2023-03-31T19:13:30;9.70;;;7.57;;
16387;SDS011;8303;53.446;9.988;2023-03-31T19:15:57;8.07;;;7.13;;
16387;SDS011;8303;53.446;9.988;2023-03-31T19:18:24;13.30;;;7.70;;
16387;SDS011;8303;53.446;9.988;2023-03-31T19:20:52;10.53;;;7.93;;
16387;SDS011;8303;53.446;9.988;2023-03-31T19:23:21;8.60;;;7.57;;
16387;SDS011;8303;53.446;9.988;2023-03-31T19:25:49;8.57;;;7.67;;
16387;SDS011;8303;53.446;9.988;2023-03-31T19:28:17;9.30;;;7.83;;
16387;SDS011;8303;53.446;9.988;2023-03-31T19:30:46;8.63;;;7.63;;
16387;SDS011;8303;53.446;9.988;2023-03-31T19:33:13;15.20;;;7.20;;
16387;SDS011;8303;53.446;9.988;2023-03-31T19:35:41;10.33;;;7.17;;
16387;SDS011;8303;53.446;9.988;2023-03-31T19:38:09;8.03;;;7.10;;
16387;SDS011;8303;53.446;9.988;2023-03-31T19:40:39;8.23;;;7.30;;
16387;SDS011;8303;53.446;9.988;2023-03-31T19:43:08;8.07;;;7.07;;
16387;SDS011;8303;53.446;9.988;2023-03-31T19:45:43;10.53;;;7.03;;
16387;SDS011;8303;53.446;9.988;2023-03-31T19:48:10;8.73;;;6.53;;
16387;SDS011;8303;53.446;9.988;2023-03-31T19:50:37;7.67;;;6.40;;
16387;SDS011;8303;53.446;9.988;2023-03-31T19:53:04;8.57;;;7.37;;
16387;SDS011;8303;53.446;9.988;2023-03-31T19:55:31;10.27;;;6.70;;
16387;SDS011;8303;53.446;9.988;2023-03-31T19:58:02;10.37;;;6.40;;
16387;SDS011;8303;53.446;9.988;2023-03-31T20:00:30;8.03;;;7.00;;
16387;SDS011;8303;53.446;9.988;2023-03-31T20:02:56;10.30;;;6.53;;
16387;SDS011;8303;53.446;9.988;2023-03-31T20:05:24;12.13;;;6.80;;
16387;SDS011;8303;53.446;9.988;2023-03-31T20:07:51;7.03;;;6.43;;
16387;SDS011;8303;53.446;9.988;2023-03-31T20:10:18;7.13;;;6.07;;
16387;SDS011;8303;53.446;9.988;2023-03-31T20:12:45;10.00;;;6.47;;
16387;SDS011;8303;53.446;9.988;2023-03-31T20:15:13;6.73;;;6.07;;
16387;SDS011;8303;53.446;9.988;2023-03-31T20:17:40;7.63;;;6.73;;
16387;SDS011;8303;53.446;9.988;2023-03-31T20:20:07;11.43;;;6.83;;
16387;SDS011;8303;53.446;9.988;2023-03-31T20:22:35;7.57;;;6.63;;
16387;SDS011;8303;53.446;9.988;2023-03-31T20:25:03;9.10;;;6.80;;
16387;SDS011;8303;53.446;9.988;2023-03-31T20:27:30;9.00;;;6.73;;